AirNav   Everest Fuels
 
 1021 users online  

5B9 Dean Memorial Airport
Haverhill, New Hampshire, USA

GOING TO HAVERHILL?


FAA INFORMATION EFFECTIVE 18 JULY 2019

Location

FAA Identifier: 5B9
Lat/Long: 44-04-48.6222N / 072-00-27.9357W
44-04.810370N / 072-00.465595W
44.0801728 / -72.0077599
(estimated)
Elevation: 581.7 ft. / 177.3 m (surveyed)
Variation: 16W (2005)
From city: 3 miles NE of HAVERHILL, NH
Time zone: UTC -4 (UTC -5 during Standard Time)
Zip code: 03774

Airport Operations

Airport use: Open to the public
Activation date: 07/1902
Control tower: no
ARTCC: BOSTON CENTER
FSS: BANGOR FLIGHT SERVICE STATION
NOTAMs facility: BGR (NOTAM-D service available)
Attendance: IREG
Wind indicator: lighted
Segmented circle: no
Lights: ACTVT LIRL RY 01/19 & WINDSOCK - CTAF.

Airport Communications

CTAF/UNICOM: 122.8
  • APCH/DEP SVC PRVDD BY BOSTON ARTCC ON FREQS 135.7/282.2 (MONTPELIER RCAG).

Nearby radio navigation aids

VOR radial/distance  VOR name  Freq  Var
MPVr107/19.0MONTPELIER VOR/DME110.8016W
LEBr036/25.7LEBANON VOR/DME113.7015W

 
NDB name  Hdg/Dist  Freq  Var  ID
MAHN236/21.938617WGMA --. -- .-
HANOVER033/23.827615WLAH .-.. .- ....

Airport Services

Fuel available: 100LL
Parking: tiedowns
Airframe service: NONE
Powerplant service: NONE
Bottled oxygen: NONE
Bulk oxygen: NONE

Runway Information

Runway 1/19

Dimensions: 2511 x 58 ft. / 765 x 18 m
Surface: asphalt, in fair condition
Weight bearing capacity: 
Single wheel: 8.5
Runway edge lights: low intensity
NSTD SPACING, FIRST 185 FT RWY 01 NOT LGTD.
RUNWAY 1  RUNWAY 19
Latitude: 44-04.605733N44-05.015008N
Longitude: 072-00.425992W072-00.505202W
Elevation: 581.7 ft.546.0 ft.
Traffic pattern: leftleft
Runway heading: 008 magnetic, 352 true188 magnetic, 172 true
Displaced threshold: 185 ft.no
Markings: basic, in good conditionnonprecision, in good condition
Touchdown point: yes, no lightsyes, no lights
Obstructions: 81 ft. trees, 332 ft. from runway, 208 ft. right of centerline, 2:1 slope to clear
PUBLIC DIRT ROAD 5 FT FROM RY END EXTENDING BOTH LEFT AND RIGHT OF CL. ALSO TREES 66FT RWY END 150 FT LEFT.
25 ft. bldg, lighted, 429 ft. from runway, 173 ft. left of centerline, 9:1 slope to clear
35 FT UTILITY POLE 160 FT FM RY END 204 FT LEFT OF CL LIGHTED

Airport Ownership and Management from official FAA records

Ownership: Publicly-owned
Owner: TOWN OF HAVERHILL
2975 DARTMOUTH COLLEGE HWY
N. HAVERHILL, NH 03774
Phone 603-787-6800
DEAN MEMORIAL ARPT COMMISSION.
Manager: DENNIS CUNNINGHAM
2975 DARTMOUTH COLLEGE RD
N. HAVERHILL, NH 03774
Phone (603) 738-4158

Airport Operational Statistics

Aircraft based on the field: 11
Single engine airplanes: 11
    
Aircraft operations: avg 57/week *
75% local general aviation
25% transient general aviation
* for 12-month period ending 31 December 2016

Additional Remarks

FOR WINTER COND CALL 603-738-4158 24 HRS BEFORE USE.
COLD TEMPERATURE RESTRICTED AIRPORT. ALTITUDE CORRECTION REQUIRED AT OR BELOW -27C.
FOR CD CTC BOSTON ARTCC AT 603-879-6859.

Instrument Procedures

NOTE: All procedures below are presented as PDF files. If you need a reader for these files, you should download the free Adobe Reader.

NOT FOR NAVIGATION. Please procure official charts for flight.
FAA instrument procedures published for use from 18 July 2019 at 0901Z to 16 August 2019 at 0900Z.

 
IAPs - Instrument Approach Procedures
RNAV (GPS) RWY 19   download
NOTE: Special Take-Off Minimums/Departure Procedures apply   download (178KB)

Other nearby airports with instrument procedures:

KMPV - Edward F Knapp State Airport (25 nm W)
KHIE - Mount Washington Regional Airport (26 nm NE)
KCDA - Caledonia County Airport (29 nm N)
KLEB - Lebanon Municipal Airport (30 nm SW)
KMVL - Morrisville-Stowe State Airport (38 nm NW)
 
Loc | Ops | Rwys | IFR | FBO | Links
Com | Nav | Svcs | Stats | Notes
Area around 5B9 (Dean Memorial Airport)
 
Road maps at: MapQuest Bing Google
 
Aerial photo
WARNING: Photo may not be current or correct
Aerial photo of 5B9 (Dean Memorial Airport)
Photo courtesy of Aerial Design Photography

Do you have a better or more recent aerial photo of Dean Memorial Airport that you would like to share? If so, please send us your photo.

 
Sectional chart

 
Airport distance calculator
Flying to Dean Memorial Airport? Find the distance to fly.

From to 5B9

Sunrise and sunset
Times for 21-Jul-2019
 Local
(UTC-4)
 Zulu
(UTC)
Morning civil twilight04:5108:51
Sunrise05:2509:25
Sunset20:2300:23
Evening civil twilight20:5800:58

Current date and time
Zulu (UTC)  21-Jul-2019 23:47:19
Local (UTC-4)  21-Jul-2019 19:47:19
 
METAR
K1V4 
20nm N 
212254Z AUTO 27/17 A2976 RMK AO1 SLP063 T02670167
K1P1 
21nm SE 
212335Z AUTO 31006KT 10SM SCT048 BKN065 OVC110 26/19 A2978 RMK AO2 T02590193
KMPV 
25nm W 
212251Z AUTO 26004KT 10SM OVC060 22/19 A2985 RMK AO2 RAE14 SLP103 P0002 T02170194
KHIE 
26nm NE 
212252Z AUTO 00000KT 10SM OVC080 24/19 A2978 RMK AO2 SLP081 T02390194
KCDA 
29nm N 
212340Z AUTO 26005KT 10SM CLR 25/17 A2982 RMK AO2 T02480173
KLEB 
30nm SW 
212253Z 00000KT 10SM SCT060 32/19 A2976 RMK AO2 SLP062 T03170194
KMWN 
33nm E 
212250Z 29022KT 0SM FG VV000 13/13 RMK
KMVL 
36nm NW 
212254Z AUTO 00000KT 10SM FEW080 BKN110 27/18 A2979 RMK AO2 SLP085 T02670183
KLCI 
40nm SE 
212256Z AUTO 28006KT 10SM CLR 29/19 A2976 RMK AO2 SLP074 T02890189
TAF
KMPV 
25nm W 
212110Z 2121/2218 30011G19KT P6SM VCSH BKN060 TEMPO 2121/2122 6SM -SHRA FM220000 34005KT P6SM FEW060 FM220700 00000KT 1/4SM FG VV002 FM221300 00000KT P6SM BKN100
KHIE 
26nm NE 
211737Z 2118/2218 30008G15KT P6SM SCT050 SCT250 FM212300 00000KT P6SM FEW250
KLEB 
30nm SW 
211907Z 2119/2218 00000KT P6SM FEW250
NOTAMs
Click for the latest NOTAMs
NOTAMs are issued by the DoD/FAA and will open in a separate window not controlled by AirNav.

 

 
 

FBO, Fuel Providers, and Aircraft Ground Support

  
 Business Name 
 
 Contact 
 
 Services / Description 
 
Fuel Prices
 
Comments
  
Dean Memorial Airport 603-738-4158
no information available

If you are affiliated with Dean Memorial Airport and would like to show here your services, contact info, web link, logo, and more, click here
100LL
AS $4.95 
 Updated 06-May-2019
 
   write
AS=Assisted/Self Service
Update Fuel Prices
 

Would you like to see your business listed on this page?

 If your business provides an interesting product or service to pilots, flight crews, aircraft, or users of the Dean Memorial Airport, you should consider listing it here.  To start the listing process, click on the button below
 
Add a business
 

Other Pages about Dean Memorial Airport

www.haverhill-nh.com/index.asp?SEC=2E4CB1B4-EC8A-4673-8079-2C23DD1DFB53&Type=B_BASIC
 
Update a link
 
Copyright © AirNav, LLC. All rights reserved. Privacy Policy  Contact